sensor_id;sensor_type;location;lat;lon;timestamp;P1;durP1;ratioP1;P2;durP2;ratioP2
9032;SDS011;4551;53.164;8.210;2022-09-06T00:00:17;16.20;;;15.20;;
9032;SDS011;4551;53.164;8.210;2022-09-06T00:02:45;7.43;;;7.03;;
9032;SDS011;4551;53.164;8.210;2022-09-06T00:05:15;8.50;;;7.60;;
9032;SDS011;4551;53.164;8.210;2022-09-06T00:07:43;8.13;;;7.57;;
9032;SDS011;4551;53.164;8.210;2022-09-06T00:10:12;9.93;;;9.37;;
9032;SDS011;4551;53.164;8.210;2022-09-06T00:12:40;3.77;;;3.67;;
9032;SDS011;4551;53.164;8.210;2022-09-06T00:15:09;13.87;;;13.07;;
9032;SDS011;4551;53.164;8.210;2022-09-06T00:17:37;14.07;;;13.27;;
9032;SDS011;4551;53.164;8.210;2022-09-06T00:20:05;8.87;;;8.30;;
9032;SDS011;4551;53.164;8.210;2022-09-06T00:22:37;7.83;;;7.43;;
9032;SDS011;4551;53.164;8.210;2022-09-06T00:25:05;19.20;;;17.83;;
9032;SDS011;4551;53.164;8.210;2022-09-06T00:27:34;18.37;;;17.27;;
9032;SDS011;4551;53.164;8.210;2022-09-06T00:30:02;17.87;;;16.67;;
9032;SDS011;4551;53.164;8.210;2022-09-06T00:32:31;15.30;;;14.37;;
9032;SDS011;4551;53.164;8.210;2022-09-06T00:35:00;15.83;;;14.93;;
9032;SDS011;4551;53.164;8.210;2022-09-06T00:37:28;9.53;;;9.13;;
9032;SDS011;4551;53.164;8.210;2022-09-06T00:39:58;26.07;;;24.07;;
9032;SDS011;4551;53.164;8.210;2022-09-06T00:42:26;18.13;;;16.90;;
9032;SDS011;4551;53.164;8.210;2022-09-06T00:44:54;11.53;;;11.00;;
9032;SDS011;4551;53.164;8.210;2022-09-06T00:47:22;31.53;;;28.70;;
9032;SDS011;4551;53.164;8.210;2022-09-06T00:49:53;10.10;;;9.60;;
9032;SDS011;4551;53.164;8.210;2022-09-06T00:52:25;26.90;;;25.00;;
9032;SDS011;4551;53.164;8.210;2022-09-06T00:54:54;13.47;;;12.43;;
9032;SDS011;4551;53.164;8.210;2022-09-06T00:57:24;14.90;;;13.90;;
9032;SDS011;4551;53.164;8.210;2022-09-06T00:59:54;16.83;;;15.83;;
9032;SDS011;4551;53.164;8.210;2022-09-06T01:02:23;18.73;;;17.27;;
9032;SDS011;4551;53.164;8.210;2022-09-06T01:04:51;9.17;;;8.77;;
9032;SDS011;4551;53.164;8.210;2022-09-06T01:07:26;21.93;;;20.33;;
9032;SDS011;4551;53.164;8.210;2022-09-06T01:10:07;16.37;;;15.17;;
9032;SDS011;4551;53.164;8.210;2022-09-06T01:12:49;12.73;;;11.90;;
9032;SDS011;4551;53.164;8.210;2022-09-06T01:15:26;21.00;;;19.60;;
9032;SDS011;4551;53.164;8.210;2022-09-06T01:18:06;21.57;;;20.10;;
9032;SDS011;4551;53.164;8.210;2022-09-06T01:20:51;28.13;;;25.93;;
9032;SDS011;4551;53.164;8.210;2022-09-06T01:26:44;13.60;;;12.90;;
9032;SDS011;4551;53.164;8.210;2022-09-06T01:29:42;25.40;;;23.67;;
9032;SDS011;4551;53.164;8.210;2022-09-06T01:32:16;27.30;;;25.33;;
9032;SDS011;4551;53.164;8.210;2022-09-06T01:34:51;23.77;;;22.03;;
9032;SDS011;4551;53.164;8.210;2022-09-06T01:37:25;12.23;;;11.60;;
9032;SDS011;4551;53.164;8.210;2022-09-06T01:39:53;20.60;;;19.20;;
9032;SDS011;4551;53.164;8.210;2022-09-06T01:42:22;20.90;;;19.43;;
9032;SDS011;4551;53.164;8.210;2022-09-06T01:44:55;19.67;;;18.33;;
9032;SDS011;4551;53.164;8.210;2022-09-06T01:47:32;8.87;;;8.43;;
9032;SDS011;4551;53.164;8.210;2022-09-06T01:53:16;24.63;;;22.67;;
9032;SDS011;4551;53.164;8.210;2022-09-06T01:56:18;28.27;;;25.90;;
9032;SDS011;4551;53.164;8.210;2022-09-06T01:59:11;35.67;;;32.73;;
9032;SDS011;4551;53.164;8.210;2022-09-06T02:01:56;40.00;;;36.40;;
9032;SDS011;4551;53.164;8.210;2022-09-06T02:04:30;30.50;;;27.90;;
9032;SDS011;4551;53.164;8.210;2022-09-06T02:07:07;30.80;;;27.93;;
9032;SDS011;4551;53.164;8.210;2022-09-06T02:09:41;25.80;;;23.53;;
9032;SDS011;4551;53.164;8.210;2022-09-06T02:12:15;14.43;;;13.63;;
9032;SDS011;4551;53.164;8.210;2022-09-06T02:14:48;22.20;;;20.70;;
9032;SDS011;4551;53.164;8.210;2022-09-06T02:17:22;30.67;;;28.53;;
9032;SDS011;4551;53.164;8.210;2022-09-06T02:19:57;29.00;;;26.77;;
9032;SDS011;4551;53.164;8.210;2022-09-06T02:22:29;26.10;;;23.93;;
9032;SDS011;4551;53.164;8.210;2022-09-06T02:25:01;46.17;;;42.37;;
9032;SDS011;4551;53.164;8.210;2022-09-06T02:27:33;22.27;;;19.43;;
9032;SDS011;4551;53.164;8.210;2022-09-06T02:30:03;17.50;;;14.37;;
9032;SDS011;4551;53.164;8.210;2022-09-06T02:32:36;25.87;;;21.93;;
9032;SDS011;4551;53.164;8.210;2022-09-06T02:35:08;15.10;;;14.13;;
9032;SDS011;4551;53.164;8.210;2022-09-06T02:37:39;26.00;;;23.70;;
9032;SDS011;4551;53.164;8.210;2022-09-06T02:40:09;26.33;;;23.83;;
9032;SDS011;4551;53.164;8.210;2022-09-06T02:42:38;13.67;;;12.67;;
9032;SDS011;4551;53.164;8.210;2022-09-06T02:45:07;14.90;;;13.90;;
9032;SDS011;4551;53.164;8.210;2022-09-06T02:47:37;6.20;;;5.80;;
9032;SDS011;4551;53.164;8.210;2022-09-06T02:50:06;14.67;;;13.83;;
9032;SDS011;4551;53.164;8.210;2022-09-06T02:52:35;11.40;;;10.83;;
9032;SDS011;4551;53.164;8.210;2022-09-06T02:55:03;5.10;;;4.90;;
9032;SDS011;4551;53.164;8.210;2022-09-06T02:57:32;24.87;;;23.27;;
9032;SDS011;4551;53.164;8.210;2022-09-06T03:00:01;30.40;;;28.27;;
9032;SDS011;4551;53.164;8.210;2022-09-06T03:02:30;21.57;;;20.03;;
9032;SDS011;4551;53.164;8.210;2022-09-06T03:05:00;25.77;;;23.70;;
9032;SDS011;4551;53.164;8.210;2022-09-06T03:07:28;20.67;;;19.50;;
9032;SDS011;4551;53.164;8.210;2022-09-06T03:09:56;22.97;;;21.47;;
9032;SDS011;4551;53.164;8.210;2022-09-06T03:12:25;22.00;;;20.17;;
9032;SDS011;4551;53.164;8.210;2022-09-06T03:14:53;14.53;;;13.73;;
9032;SDS011;4551;53.164;8.210;2022-09-06T03:17:21;15.97;;;14.70;;
9032;SDS011;4551;53.164;8.210;2022-09-06T03:19:50;18.63;;;17.43;;
9032;SDS011;4551;53.164;8.210;2022-09-06T03:22:20;20.30;;;18.80;;
9032;SDS011;4551;53.164;8.210;2022-09-06T03:24:48;17.67;;;16.57;;
9032;SDS011;4551;53.164;8.210;2022-09-06T03:27:16;18.20;;;17.00;;
9032;SDS011;4551;53.164;8.210;2022-09-06T03:29:44;12.27;;;11.63;;
9032;SDS011;4551;53.164;8.210;2022-09-06T03:32:12;14.73;;;13.83;;
9032;SDS011;4551;53.164;8.210;2022-09-06T03:34:40;20.47;;;18.90;;
9032;SDS011;4551;53.164;8.210;2022-09-06T03:37:08;17.50;;;16.43;;
9032;SDS011;4551;53.164;8.210;2022-09-06T03:39:38;20.80;;;19.50;;
9032;SDS011;4551;53.164;8.210;2022-09-06T03:42:06;16.27;;;15.37;;
9032;SDS011;4551;53.164;8.210;2022-09-06T03:44:35;20.73;;;19.20;;
9032;SDS011;4551;53.164;8.210;2022-09-06T03:47:03;19.90;;;18.50;;
9032;SDS011;4551;53.164;8.210;2022-09-06T03:49:32;22.17;;;20.47;;
9032;SDS011;4551;53.164;8.210;2022-09-06T03:52:00;22.23;;;20.43;;
9032;SDS011;4551;53.164;8.210;2022-09-06T03:54:29;20.37;;;18.87;;
9032;SDS011;4551;53.164;8.210;2022-09-06T03:56:58;18.23;;;16.93;;
9032;SDS011;4551;53.164;8.210;2022-09-06T03:59:26;20.90;;;19.40;;
9032;SDS011;4551;53.164;8.210;2022-09-06T04:01:54;19.53;;;18.13;;
9032;SDS011;4551;53.164;8.210;2022-09-06T04:04:23;15.73;;;14.83;;
9032;SDS011;4551;53.164;8.210;2022-09-06T04:06:51;22.07;;;20.30;;
9032;SDS011;4551;53.164;8.210;2022-09-06T04:09:19;20.77;;;19.17;;
9032;SDS011;4551;53.164;8.210;2022-09-06T04:11:48;12.27;;;11.67;;
9032;SDS011;4551;53.164;8.210;2022-09-06T04:14:17;10.33;;;9.93;;
9032;SDS011;4551;53.164;8.210;2022-09-06T04:16:45;15.10;;;14.20;;
9032;SDS011;4551;53.164;8.210;2022-09-06T04:19:14;14.93;;;14.07;;
9032;SDS011;4551;53.164;8.210;2022-09-06T04:21:42;10.63;;;10.13;;
9032;SDS011;4551;53.164;8.210;2022-09-06T04:24:10;13.50;;;12.77;;
9032;SDS011;4551;53.164;8.210;2022-09-06T04:26:38;16.67;;;15.67;;
9032;SDS011;4551;53.164;8.210;2022-09-06T04:29:06;19.83;;;18.60;;
9032;SDS011;4551;53.164;8.210;2022-09-06T04:31:36;14.37;;;13.60;;
9032;SDS011;4551;53.164;8.210;2022-09-06T04:34:04;18.00;;;16.83;;
9032;SDS011;4551;53.164;8.210;2022-09-06T04:36:32;22.53;;;20.73;;
9032;SDS011;4551;53.164;8.210;2022-09-06T04:39:00;17.70;;;16.60;;
9032;SDS011;4551;53.164;8.210;2022-09-06T04:41:29;13.00;;;12.30;;
9032;SDS011;4551;53.164;8.210;2022-09-06T04:43:57;13.10;;;12.33;;
9032;SDS011;4551;53.164;8.210;2022-09-06T04:46:25;8.13;;;7.83;;
9032;SDS011;4551;53.164;8.210;2022-09-06T04:48:57;11.37;;;10.70;;
9032;SDS011;4551;53.164;8.210;2022-09-06T04:51:26;7.43;;;7.13;;
9032;SDS011;4551;53.164;8.210;2022-09-06T04:53:54;12.27;;;11.57;;
9032;SDS011;4551;53.164;8.210;2022-09-06T04:56:23;17.70;;;16.47;;
9032;SDS011;4551;53.164;8.210;2022-09-06T04:58:53;5.40;;;5.20;;
9032;SDS011;4551;53.164;8.210;2022-09-06T05:01:21;10.43;;;10.00;;
9032;SDS011;4551;53.164;8.210;2022-09-06T05:03:51;6.43;;;6.23;;
9032;SDS011;4551;53.164;8.210;2022-09-06T05:06:24;9.80;;;9.33;;
9032;SDS011;4551;53.164;8.210;2022-09-06T05:08:52;7.80;;;7.50;;
9032;SDS011;4551;53.164;8.210;2022-09-06T05:11:20;8.27;;;7.97;;
9032;SDS011;4551;53.164;8.210;2022-09-06T05:13:49;9.87;;;9.47;;
9032;SDS011;4551;53.164;8.210;2022-09-06T05:16:17;10.07;;;9.67;;
9032;SDS011;4551;53.164;8.210;2022-09-06T05:18:45;13.30;;;12.60;;
9032;SDS011;4551;53.164;8.210;2022-09-06T05:21:13;9.83;;;9.33;;
9032;SDS011;4551;53.164;8.210;2022-09-06T05:23:43;9.43;;;9.00;;
9032;SDS011;4551;53.164;8.210;2022-09-06T05:26:12;19.23;;;17.83;;
9032;SDS011;4551;53.164;8.210;2022-09-06T05:28:40;16.60;;;15.57;;
9032;SDS011;4551;53.164;8.210;2022-09-06T05:31:08;22.93;;;21.13;;
9032;SDS011;4551;53.164;8.210;2022-09-06T05:33:38;27.60;;;25.10;;
9032;SDS011;4551;53.164;8.210;2022-09-06T05:36:06;28.50;;;25.97;;
9032;SDS011;4551;53.164;8.210;2022-09-06T05:38:34;10.37;;;9.97;;
9032;SDS011;4551;53.164;8.210;2022-09-06T05:41:04;15.23;;;14.33;;
9032;SDS011;4551;53.164;8.210;2022-09-06T05:43:32;12.53;;;11.93;;
9032;SDS011;4551;53.164;8.210;2022-09-06T05:46:00;8.13;;;7.77;;
9032;SDS011;4551;53.164;8.210;2022-09-06T05:48:29;2.97;;;2.87;;
9032;SDS011;4551;53.164;8.210;2022-09-06T05:51:03;2.93;;;2.87;;
9032;SDS011;4551;53.164;8.210;2022-09-06T05:53:33;5.23;;;5.03;;
9032;SDS011;4551;53.164;8.210;2022-09-06T05:56:02;4.10;;;4.00;;
9032;SDS011;4551;53.164;8.210;2022-09-06T05:58:32;7.90;;;7.60;;
9032;SDS011;4551;53.164;8.210;2022-09-06T06:01:07;9.10;;;8.80;;
9032;SDS011;4551;53.164;8.210;2022-09-06T06:03:40;5.03;;;4.90;;
9032;SDS011;4551;53.164;8.210;2022-09-06T06:06:09;18.60;;;17.30;;
9032;SDS011;4551;53.164;8.210;2022-09-06T06:08:37;13.70;;;13.00;;
9032;SDS011;4551;53.164;8.210;2022-09-06T06:11:05;13.53;;;12.83;;
9032;SDS011;4551;53.164;8.210;2022-09-06T06:13:35;17.90;;;16.70;;
9032;SDS011;4551;53.164;8.210;2022-09-06T06:16:05;15.47;;;14.57;;
9032;SDS011;4551;53.164;8.210;2022-09-06T06:18:34;9.87;;;9.47;;
9032;SDS011;4551;53.164;8.210;2022-09-06T06:21:06;12.43;;;11.83;;
9032;SDS011;4551;53.164;8.210;2022-09-06T06:23:35;7.60;;;7.30;;
9032;SDS011;4551;53.164;8.210;2022-09-06T06:26:04;6.37;;;6.17;;
9032;SDS011;4551;53.164;8.210;2022-09-06T06:28:34;12.47;;;11.87;;
9032;SDS011;4551;53.164;8.210;2022-09-06T06:31:03;16.90;;;15.90;;
9032;SDS011;4551;53.164;8.210;2022-09-06T06:33:33;12.67;;;12.07;;
9032;SDS011;4551;53.164;8.210;2022-09-06T06:36:02;19.73;;;18.57;;
9032;SDS011;4551;53.164;8.210;2022-09-06T06:38:32;13.33;;;12.63;;
9032;SDS011;4551;53.164;8.210;2022-09-06T06:41:01;6.00;;;5.80;;
9032;SDS011;4551;53.164;8.210;2022-09-06T06:43:32;13.00;;;12.40;;
9032;SDS011;4551;53.164;8.210;2022-09-06T06:46:03;13.83;;;13.03;;
9032;SDS011;4551;53.164;8.210;2022-09-06T06:48:32;29.47;;;27.07;;
9032;SDS011;4551;53.164;8.210;2022-09-06T06:51:01;21.17;;;19.53;;
9032;SDS011;4551;53.164;8.210;2022-09-06T06:53:29;12.67;;;12.07;;
9032;SDS011;4551;53.164;8.210;2022-09-06T06:55:58;18.97;;;17.70;;
9032;SDS011;4551;53.164;8.210;2022-09-06T06:58:26;16.00;;;15.00;;
9032;SDS011;4551;53.164;8.210;2022-09-06T07:00:56;14.53;;;13.73;;
9032;SDS011;4551;53.164;8.210;2022-09-06T07:03:24;13.57;;;12.87;;
9032;SDS011;4551;53.164;8.210;2022-09-06T07:05:52;18.63;;;17.33;;
9032;SDS011;4551;53.164;8.210;2022-09-06T07:08:36;18.33;;;17.10;;
9032;SDS011;4551;53.164;8.210;2022-09-06T07:11:04;15.47;;;14.43;;
9032;SDS011;4551;53.164;8.210;2022-09-06T07:13:33;9.83;;;9.43;;
9032;SDS011;4551;53.164;8.210;2022-09-06T07:16:06;13.30;;;12.60;;
9032;SDS011;4551;53.164;8.210;2022-09-06T07:18:41;21.83;;;20.20;;
9032;SDS011;4551;53.164;8.210;2022-09-06T07:21:11;16.63;;;15.53;;
9032;SDS011;4551;53.164;8.210;2022-09-06T07:24:01;17.53;;;16.43;;
9032;SDS011;4551;53.164;8.210;2022-09-06T07:26:34;13.40;;;12.60;;
9032;SDS011;4551;53.164;8.210;2022-09-06T07:29:04;14.87;;;13.90;;
9032;SDS011;4551;53.164;8.210;2022-09-06T07:31:36;19.30;;;17.80;;
9032;SDS011;4551;53.164;8.210;2022-09-06T07:34:25;19.90;;;18.43;;
9032;SDS011;4551;53.164;8.210;2022-09-06T07:36:53;15.67;;;14.73;;
9032;SDS011;4551;53.164;8.210;2022-09-06T07:39:22;20.60;;;19.03;;
9032;SDS011;4551;53.164;8.210;2022-09-06T07:41:50;20.27;;;18.67;;
9032;SDS011;4551;53.164;8.210;2022-09-06T07:44:18;13.33;;;11.90;;
9032;SDS011;4551;53.164;8.210;2022-09-06T07:46:47;7.73;;;7.43;;
9032;SDS011;4551;53.164;8.210;2022-09-06T07:49:18;13.67;;;12.57;;
9032;SDS011;4551;53.164;8.210;2022-09-06T07:51:46;16.47;;;15.30;;
9032;SDS011;4551;53.164;8.210;2022-09-06T07:54:14;28.73;;;25.80;;
9032;SDS011;4551;53.164;8.210;2022-09-06T07:56:58;24.43;;;22.23;;
9032;SDS011;4551;53.164;8.210;2022-09-06T07:59:26;24.10;;;21.87;;
9032;SDS011;4551;53.164;8.210;2022-09-06T08:01:55;25.23;;;22.60;;
9032;SDS011;4551;53.164;8.210;2022-09-06T08:04:23;24.90;;;22.67;;
9032;SDS011;4551;53.164;8.210;2022-09-06T08:06:52;35.20;;;30.33;;
9032;SDS011;4551;53.164;8.210;2022-09-06T08:09:42;35.83;;;31.47;;
9032;SDS011;4551;53.164;8.210;2022-09-06T08:12:10;48.13;;;37.90;;
9032;SDS011;4551;53.164;8.210;2022-09-06T08:14:38;40.67;;;36.17;;
9032;SDS011;4551;53.164;8.210;2022-09-06T08:17:08;32.37;;;29.10;;
9032;SDS011;4551;53.164;8.210;2022-09-06T08:19:36;26.27;;;24.07;;
9032;SDS011;4551;53.164;8.210;2022-09-06T08:22:04;42.63;;;34.30;;
9032;SDS011;4551;53.164;8.210;2022-09-06T08:24:32;36.87;;;33.37;;
9032;SDS011;4551;53.164;8.210;2022-09-06T08:27:01;38.07;;;34.13;;
9032;SDS011;4551;53.164;8.210;2022-09-06T08:29:33;40.37;;;35.97;;
9032;SDS011;4551;53.164;8.210;2022-09-06T08:32:01;36.07;;;32.17;;
9032;SDS011;4551;53.164;8.210;2022-09-06T08:34:31;22.87;;;21.07;;
9032;SDS011;4551;53.164;8.210;2022-09-06T08:36:59;26.43;;;23.73;;
9032;SDS011;4551;53.164;8.210;2022-09-06T08:39:27;48.10;;;37.97;;
9032;SDS011;4551;53.164;8.210;2022-09-06T08:41:57;45.63;;;34.43;;
9032;SDS011;4551;53.164;8.210;2022-09-06T08:44:30;35.43;;;30.67;;
9032;SDS011;4551;53.164;8.210;2022-09-06T08:47:21;43.60;;;33.03;;
9032;SDS011;4551;53.164;8.210;2022-09-06T08:49:50;36.33;;;29.83;;
9032;SDS011;4551;53.164;8.210;2022-09-06T08:52:26;37.47;;;29.63;;
9032;SDS011;4551;53.164;8.210;2022-09-06T08:55:26;34.93;;;30.20;;
9032;SDS011;4551;53.164;8.210;2022-09-06T08:58:02;37.47;;;30.57;;
9032;SDS011;4551;53.164;8.210;2022-09-06T09:00:38;31.93;;;28.57;;
9032;SDS011;4551;53.164;8.210;2022-09-06T09:03:09;36.40;;;30.67;;
9032;SDS011;4551;53.164;8.210;2022-09-06T09:05:45;38.73;;;31.57;;
9032;SDS011;4551;53.164;8.210;2022-09-06T09:08:18;36.33;;;29.57;;
9032;SDS011;4551;53.164;8.210;2022-09-06T09:10:51;37.23;;;31.20;;
9032;SDS011;4551;53.164;8.210;2022-09-06T09:13:25;34.47;;;29.17;;
9032;SDS011;4551;53.164;8.210;2022-09-06T09:15:57;48.10;;;34.30;;
9032;SDS011;4551;53.164;8.210;2022-09-06T09:18:26;63.43;;;38.83;;
9032;SDS011;4551;53.164;8.210;2022-09-06T09:20:58;29.50;;;26.37;;
9032;SDS011;4551;53.164;8.210;2022-09-06T09:23:27;28.70;;;25.70;;
9032;SDS011;4551;53.164;8.210;2022-09-06T09:25:58;28.43;;;25.60;;
9032;SDS011;4551;53.164;8.210;2022-09-06T09:28:29;24.60;;;22.53;;
9032;SDS011;4551;53.164;8.210;2022-09-06T09:30:59;33.37;;;30.13;;
9032;SDS011;4551;53.164;8.210;2022-09-06T09:33:28;38.50;;;34.37;;
9032;SDS011;4551;53.164;8.210;2022-09-06T09:36:01;32.67;;;29.40;;
9032;SDS011;4551;53.164;8.210;2022-09-06T09:38:34;25.43;;;23.47;;
9032;SDS011;4551;53.164;8.210;2022-09-06T09:41:07;22.80;;;21.10;;
9032;SDS011;4551;53.164;8.210;2022-09-06T09:43:37;17.77;;;16.70;;
9032;SDS011;4551;53.164;8.210;2022-09-06T09:46:09;29.77;;;26.80;;
9032;SDS011;4551;53.164;8.210;2022-09-06T09:48:58;26.33;;;23.83;;
9032;SDS011;4551;53.164;8.210;2022-09-06T09:51:30;28.60;;;26.20;;
9032;SDS011;4551;53.164;8.210;2022-09-06T09:53:59;39.87;;;34.73;;
9032;SDS011;4551;53.164;8.210;2022-09-06T09:56:37;50.97;;;37.37;;
9032;SDS011;4551;53.164;8.210;2022-09-06T09:59:19;55.33;;;37.47;;
9032;SDS011;4551;53.164;8.210;2022-09-06T10:01:50;44.40;;;35.87;;
9032;SDS011;4551;53.164;8.210;2022-09-06T10:04:23;35.47;;;30.40;;
9032;SDS011;4551;53.164;8.210;2022-09-06T10:07:13;39.70;;;33.97;;
9032;SDS011;4551;53.164;8.210;2022-09-06T10:09:44;31.57;;;28.33;;
9032;SDS011;4551;53.164;8.210;2022-09-06T10:12:17;37.17;;;33.40;;
9032;SDS011;4551;53.164;8.210;2022-09-06T10:14:55;31.23;;;27.93;;
9032;SDS011;4551;53.164;8.210;2022-09-06T10:17:29;27.13;;;24.73;;
9032;SDS011;4551;53.164;8.210;2022-09-06T10:19:59;28.83;;;26.03;;
9032;SDS011;4551;53.164;8.210;2022-09-06T10:22:37;26.93;;;24.43;;
9032;SDS011;4551;53.164;8.210;2022-09-06T10:28:13;24.90;;;22.70;;
9032;SDS011;4551;53.164;8.210;2022-09-06T10:31:03;31.50;;;28.57;;
9032;SDS011;4551;53.164;8.210;2022-09-06T10:33:52;33.17;;;30.00;;
9032;SDS011;4551;53.164;8.210;2022-09-06T10:36:28;36.97;;;33.17;;
9032;SDS011;4551;53.164;8.210;2022-09-06T10:39:03;30.00;;;27.10;;
9032;SDS011;4551;53.164;8.210;2022-09-06T10:41:44;26.27;;;24.03;;
9032;SDS011;4551;53.164;8.210;2022-09-06T10:44:27;26.57;;;24.23;;
9032;SDS011;4551;53.164;8.210;2022-09-06T10:47:09;32.50;;;28.97;;
9032;SDS011;4551;53.164;8.210;2022-09-06T10:49:41;22.57;;;20.77;;
9032;SDS011;4551;53.164;8.210;2022-09-06T10:52:12;21.50;;;19.90;;
9032;SDS011;4551;53.164;8.210;2022-09-06T10:54:46;18.20;;;16.93;;
9032;SDS011;4551;53.164;8.210;2022-09-06T10:57:15;16.87;;;15.73;;
9032;SDS011;4551;53.164;8.210;2022-09-06T11:00:08;30.13;;;27.03;;
9032;SDS011;4551;53.164;8.210;2022-09-06T11:02:39;23.50;;;21.57;;
9032;SDS011;4551;53.164;8.210;2022-09-06T11:05:15;36.83;;;33.50;;
9032;SDS011;4551;53.164;8.210;2022-09-06T11:08:04;24.47;;;22.40;;
9032;SDS011;4551;53.164;8.210;2022-09-06T11:10:58;12.87;;;11.97;;
9032;SDS011;4551;53.164;8.210;2022-09-06T11:13:32;21.97;;;20.27;;
9032;SDS011;4551;53.164;8.210;2022-09-06T11:16:01;19.13;;;17.73;;
9032;SDS011;4551;53.164;8.210;2022-09-06T11:18:35;8.93;;;8.43;;
9032;SDS011;4551;53.164;8.210;2022-09-06T11:21:19;25.80;;;23.70;;
9032;SDS011;4551;53.164;8.210;2022-09-06T11:24:09;10.87;;;10.23;;
9032;SDS011;4551;53.164;8.210;2022-09-06T11:26:43;12.53;;;11.93;;
9032;SDS011;4551;53.164;8.210;2022-09-06T11:29:22;24.07;;;22.67;;
9032;SDS011;4551;53.164;8.210;2022-09-06T11:31:52;9.67;;;9.27;;
9032;SDS011;4551;53.164;8.210;2022-09-06T11:34:49;12.87;;;12.17;;
9032;SDS011;4551;53.164;8.210;2022-09-06T11:37:22;17.10;;;15.90;;
9032;SDS011;4551;53.164;8.210;2022-09-06T11:40:12;28.97;;;26.77;;
9032;SDS011;4551;53.164;8.210;2022-09-06T11:43:13;22.10;;;20.50;;
9032;SDS011;4551;53.164;8.210;2022-09-06T11:45:44;29.23;;;26.80;;
9032;SDS011;4551;53.164;8.210;2022-09-06T11:48:35;38.30;;;34.93;;
9032;SDS011;4551;53.164;8.210;2022-09-06T11:51:34;57.77;;;37.37;;
9032;SDS011;4551;53.164;8.210;2022-09-06T11:56:54;37.80;;;31.23;;
9032;SDS011;4551;53.164;8.210;2022-09-06T11:59:28;48.43;;;33.20;;
9032;SDS011;4551;53.164;8.210;2022-09-06T12:02:03;49.73;;;34.77;;
9032;SDS011;4551;53.164;8.210;2022-09-06T12:10:44;43.73;;;31.93;;
9032;SDS011;4551;53.164;8.210;2022-09-06T12:13:32;47.50;;;34.33;;
9032;SDS011;4551;53.164;8.210;2022-09-06T12:16:17;42.17;;;31.23;;
9032;SDS011;4551;53.164;8.210;2022-09-06T12:18:53;46.63;;;32.90;;
9032;SDS011;4551;53.164;8.210;2022-09-06T12:21:34;48.37;;;32.43;;
9032;SDS011;4551;53.164;8.210;2022-09-06T12:27:20;36.20;;;30.43;;
9032;SDS011;4551;53.164;8.210;2022-09-06T12:29:51;27.53;;;25.43;;
9032;SDS011;4551;53.164;8.210;2022-09-06T12:32:27;19.03;;;17.87;;
9032;SDS011;4551;53.164;8.210;2022-09-06T12:35:03;21.97;;;20.33;;
9032;SDS011;4551;53.164;8.210;2022-09-06T12:37:58;22.60;;;20.70;;
9032;SDS011;4551;53.164;8.210;2022-09-06T12:40:28;24.77;;;22.77;;
9032;SDS011;4551;53.164;8.210;2022-09-06T12:42:58;38.73;;;29.93;;
9032;SDS011;4551;53.164;8.210;2022-09-06T12:45:28;24.47;;;22.17;;
9032;SDS011;4551;53.164;8.210;2022-09-06T12:48:06;25.37;;;23.27;;
9032;SDS011;4551;53.164;8.210;2022-09-06T12:50:36;32.73;;;28.97;;
9032;SDS011;4551;53.164;8.210;2022-09-06T12:53:15;41.33;;;31.57;;
9032;SDS011;4551;53.164;8.210;2022-09-06T12:56:00;39.47;;;30.37;;
9032;SDS011;4551;53.164;8.210;2022-09-06T12:58:30;29.67;;;26.60;;
9032;SDS011;4551;53.164;8.210;2022-09-06T13:01:02;25.87;;;23.63;;
9032;SDS011;4551;53.164;8.210;2022-09-06T13:03:36;31.87;;;28.40;;
9032;SDS011;4551;53.164;8.210;2022-09-06T13:06:07;28.80;;;26.13;;
9032;SDS011;4551;53.164;8.210;2022-09-06T13:08:42;27.93;;;25.37;;
9032;SDS011;4551;53.164;8.210;2022-09-06T13:11:15;27.67;;;25.10;;
9032;SDS011;4551;53.164;8.210;2022-09-06T13:13:50;37.87;;;31.03;;
9032;SDS011;4551;53.164;8.210;2022-09-06T13:16:20;30.83;;;27.60;;
9032;SDS011;4551;53.164;8.210;2022-09-06T13:18:52;8.00;;;7.70;;
9032;SDS011;4551;53.164;8.210;2022-09-06T13:21:30;17.03;;;16.03;;
9032;SDS011;4551;53.164;8.210;2022-09-06T13:23:59;20.57;;;19.17;;
9032;SDS011;4551;53.164;8.210;2022-09-06T13:26:43;17.00;;;15.93;;
9032;SDS011;4551;53.164;8.210;2022-09-06T13:29:20;18.03;;;16.90;;
9032;SDS011;4551;53.164;8.210;2022-09-06T13:31:50;26.87;;;24.47;;
9032;SDS011;4551;53.164;8.210;2022-09-06T13:34:21;29.80;;;26.97;;
9032;SDS011;4551;53.164;8.210;2022-09-06T13:36:50;17.50;;;16.50;;
9032;SDS011;4551;53.164;8.210;2022-09-06T13:39:30;20.27;;;18.83;;
9032;SDS011;4551;53.164;8.210;2022-09-06T13:42:00;19.27;;;18.10;;
9032;SDS011;4551;53.164;8.210;2022-09-06T13:44:30;16.43;;;15.50;;
9032;SDS011;4551;53.164;8.210;2022-09-06T13:46:59;27.83;;;25.53;;
9032;SDS011;4551;53.164;8.210;2022-09-06T13:49:29;30.20;;;27.27;;
9032;SDS011;4551;53.164;8.210;2022-09-06T13:51:59;33.83;;;29.63;;
9032;SDS011;4551;53.164;8.210;2022-09-06T13:54:29;25.43;;;23.40;;
9032;SDS011;4551;53.164;8.210;2022-09-06T13:57:00;17.07;;;16.17;;
9032;SDS011;4551;53.164;8.210;2022-09-06T13:59:28;10.40;;;10.00;;
9032;SDS011;4551;53.164;8.210;2022-09-06T14:01:58;12.00;;;11.40;;
9032;SDS011;4551;53.164;8.210;2022-09-06T14:04:29;19.30;;;18.03;;
9032;SDS011;4551;53.164;8.210;2022-09-06T14:06:58;19.53;;;18.23;;
9032;SDS011;4551;53.164;8.210;2022-09-06T14:09:26;20.60;;;19.27;;
9032;SDS011;4551;53.164;8.210;2022-09-06T14:11:55;11.80;;;11.30;;
9032;SDS011;4551;53.164;8.210;2022-09-06T14:14:23;19.60;;;18.33;;
9032;SDS011;4551;53.164;8.210;2022-09-06T14:16:51;22.83;;;21.27;;
9032;SDS011;4551;53.164;8.210;2022-09-06T14:19:20;18.03;;;16.93;;
9032;SDS011;4551;53.164;8.210;2022-09-06T14:21:49;14.10;;;13.47;;
9032;SDS011;4551;53.164;8.210;2022-09-06T14:24:18;12.53;;;11.97;;
9032;SDS011;4551;53.164;8.210;2022-09-06T14:26:46;16.87;;;15.93;;
9032;SDS011;4551;53.164;8.210;2022-09-06T14:29:14;18.77;;;17.67;;
9032;SDS011;4551;53.164;8.210;2022-09-06T14:31:42;16.13;;;15.33;;
9032;SDS011;4551;53.164;8.210;2022-09-06T14:34:10;18.77;;;17.77;;
9032;SDS011;4551;53.164;8.210;2022-09-06T14:36:39;19.13;;;18.07;;
9032;SDS011;4551;53.164;8.210;2022-09-06T14:39:08;24.77;;;22.93;;
9032;SDS011;4551;53.164;8.210;2022-09-06T14:41:37;13.50;;;12.87;;
9032;SDS011;4551;53.164;8.210;2022-09-06T14:44:05;21.07;;;19.77;;
9032;SDS011;4551;53.164;8.210;2022-09-06T14:46:36;16.80;;;15.77;;
9032;SDS011;4551;53.164;8.210;2022-09-06T14:49:05;10.60;;;10.10;;
9032;SDS011;4551;53.164;8.210;2022-09-06T14:51:35;10.45;;;9.90;;
9032;SDS011;4551;53.164;8.210;2022-09-06T14:54:06;9.33;;;8.90;;
9032;SDS011;4551;53.164;8.210;2022-09-06T14:56:36;9.70;;;9.30;;
9032;SDS011;4551;53.164;8.210;2022-09-06T14:59:06;15.30;;;14.50;;
9032;SDS011;4551;53.164;8.210;2022-09-06T15:01:35;16.83;;;15.93;;
9032;SDS011;4551;53.164;8.210;2022-09-06T15:04:06;22.93;;;21.47;;
9032;SDS011;4551;53.164;8.210;2022-09-06T15:06:36;22.97;;;21.33;;
9032;SDS011;4551;53.164;8.210;2022-09-06T15:09:10;11.83;;;11.13;;
9032;SDS011;4551;53.164;8.210;2022-09-06T15:11:40;12.97;;;12.30;;
9032;SDS011;4551;53.164;8.210;2022-09-06T15:14:12;7.97;;;7.67;;
9032;SDS011;4551;53.164;8.210;2022-09-06T15:16:42;10.93;;;10.40;;
9032;SDS011;4551;53.164;8.210;2022-09-06T15:19:11;12.93;;;12.07;;
9032;SDS011;4551;53.164;8.210;2022-09-06T15:21:39;13.30;;;12.80;;
9032;SDS011;4551;53.164;8.210;2022-09-06T15:24:08;8.07;;;7.77;;
9032;SDS011;4551;53.164;8.210;2022-09-06T15:26:39;7.23;;;6.93;;
9032;SDS011;4551;53.164;8.210;2022-09-06T15:29:08;15.15;;;14.35;;
9032;SDS011;4551;53.164;8.210;2022-09-06T15:31:37;15.93;;;15.10;;
9032;SDS011;4551;53.164;8.210;2022-09-06T15:34:06;14.20;;;13.50;;
9032;SDS011;4551;53.164;8.210;2022-09-06T15:36:35;9.65;;;9.25;;
9032;SDS011;4551;53.164;8.210;2022-09-06T15:39:04;11.50;;;11.00;;
9032;SDS011;4551;53.164;8.210;2022-09-06T15:41:33;12.97;;;12.37;;